Time;durP1;ratioP1;P1;durP2;ratioP2;P2;SDS_P1;SDS_P2;PMS_P1;PMS_P2;Temp;Humidity;BMP_temperature;BMP_pressure;BME280_temperature;BME280_humidity;BME280_pressure;Samples;Min_cycle;Max_cycle;Signal;HPM_P1;HPM_P2
2022/11/26 00:01:14;;;;;;;27.48;7.18;;;4.90;99.90;;;;;;5031486;28;20041;-78
2022/11/26 00:03:40;;;;;;;26.17;6.40;;;5.00;99.90;;;;;;5015067;28;20463;-74
2022/11/26 00:06:29;;;;;;;23.88;7.38;;;4.90;99.90;;;;;;5015140;28;20076;-76
2022/11/26 00:08:55;;;;;;;22.05;7.03;;;4.90;99.90;;;;;;5015388;28;20056;-78
2022/11/26 00:11:21;;;;;;;25.13;6.97;;;4.90;99.90;;;;;;5031422;28;20057;-73
2022/11/26 00:13:46;;;;;;;21.95;6.70;;;5.20;99.90;;;;;;5014967;28;20049;-75
2022/11/26 00:16:14;;;;;;;25.58;6.80;;;4.90;99.90;;;;;;5031410;28;20095;-74
2022/11/26 00:18:41;;;;;;;25.27;6.22;;;5.50;99.90;;;;;;5031483;28;20448;-74
2022/11/26 00:21:25;;;;;;;21.55;6.32;;;5.10;99.90;;;;;;5031457;28;20057;-74
2022/11/26 00:23:52;;;;;;;29.10;6.75;;;5.00;99.90;;;;;;5031325;28;20115;-74
2022/11/26 00:26:23;;;;;;;27.35;6.60;;;5.00;99.90;;;;;;5014774;28;20478;-73
2022/11/26 00:28:53;;;;;;;24.10;6.82;;;5.00;99.90;;;;;;5015174;28;20049;-73
2022/11/26 00:31:18;;;;;;;20.00;6.00;;;5.10;99.90;;;;;;5030938;28;20053;-75
2022/11/26 00:33:44;;;;;;;26.05;6.07;;;5.30;99.90;;;;;;5031522;28;20056;-79
2022/11/26 00:36:30;;;;;;;25.08;6.15;;;5.10;99.90;;;;;;5031276;28;20483;-72
2022/11/26 00:39:03;;;;;;;21.42;5.57;;;5.00;99.90;;;;;;5031418;28;20053;-76
2022/11/26 00:41:37;;;;;;;23.70;6.00;;;5.00;99.90;;;;;;5031388;28;20042;-74
2022/11/26 00:44:03;;;;;;;24.38;6.18;;;5.40;99.90;;;;;;5014885;28;20442;-77
2022/11/26 00:46:29;;;;;;;24.88;5.90;;;5.00;99.90;;;;;;5031389;28;20474;-73
2022/11/26 00:48:54;;;;;;;28.02;6.70;;;5.00;99.90;;;;;;5014650;28;20099;-74
2022/11/26 00:51:27;;;;;;;32.08;6.38;;;5.00;99.90;;;;;;5032504;28;20095;-73
2022/11/26 00:53:57;;;;;;;22.33;6.10;;;5.00;99.90;;;;;;5018527;28;20092;-74
2022/11/26 00:56:23;;;;;;;24.52;6.18;;;5.00;99.90;;;;;;5018454;28;20053;-74
2022/11/26 00:58:49;;;;;;;18.38;6.20;;;5.10;99.90;;;;;;5002111;28;20496;-74
2022/11/26 01:01:24;;;;;;;20.15;6.22;;;4.90;99.90;;;;;;5034776;28;20052;-73
2022/11/26 01:03:50;;;;;;;23.45;6.93;;;4.90;99.90;;;;;;5018118;28;20128;-74
2022/11/26 01:06:29;;;;;;;20.92;6.13;;;5.30;99.90;;;;;;5017944;28;20137;-75
2022/11/26 01:08:54;;;;;;;26.60;6.88;;;5.70;99.90;;;;;;5018359;28;20397;-78
2022/11/26 01:11:22;;;;;;;20.80;6.28;;;5.00;99.90;;;;;;5034423;28;20136;-75
2022/11/26 01:13:50;;;;;;;22.65;6.72;;;5.00;99.90;;;;;;5034723;28;20049;-78
2022/11/26 01:16:23;;;;;;;29.55;7.10;;;5.20;99.90;;;;;;5017917;28;20063;-73
2022/11/26 01:18:51;;;;;;;26.65;6.80;;;5.10;99.90;;;;;;5034616;28;20037;-76
2022/11/26 01:21:17;;;;;;;26.52;7.40;;;5.10;99.90;;;;;;5017780;28;20050;-72
2022/11/26 01:23:43;;;;;;;26.83;7.47;;;5.40;99.90;;;;;;5001448;28;20038;-75
2022/11/26 01:26:21;;;;;;;20.92;7.72;;;5.00;99.90;;;;;;5034194;28;20508;-75
2022/11/26 01:28:48;;;;;;;28.50;8.15;;;5.00;99.90;;;;;;5034534;28;20437;-73
2022/11/26 01:31:23;;;;;;;32.72;8.73;;;4.90;99.90;;;;;;5001146;28;20119;-74
2022/11/26 01:33:49;;;;;;;28.17;8.68;;;4.90;99.90;;;;;;5034397;28;20049;-75
2022/11/26 01:36:24;;;;;;;30.85;8.57;;;5.00;99.90;;;;;;5034074;28;20107;-75
2022/11/26 01:38:54;;;;;;;34.65;10.05;;;4.90;99.90;;;;;;5017755;28;20540;-73
2022/11/26 01:41:44;;;;;;;36.28;9.85;;;4.90;99.90;;;;;;5017598;28;20103;-74
2022/11/26 01:44:22;;;;;;;32.45;10.50;;;4.80;99.90;;;;;;5034183;28;20084;-74
2022/11/26 01:46:49;;;;;;;36.53;12.15;;;4.80;99.90;;;;;;5017672;28;20085;-74
2022/11/26 01:49:24;;;;;;;41.25;13.18;;;4.80;99.90;;;;;;5017273;28;20053;-77
2022/11/26 01:52:02;;;;;;;47.72;15.88;;;4.80;99.90;;;;;;5034095;28;20049;-74
2022/11/26 01:54:28;;;;;;;47.95;15.90;;;4.80;99.90;;;;;;5033754;28;20045;-73
2022/11/26 01:56:56;;;;;;;48.83;17.90;;;5.60;99.90;;;;;;5033826;28;20067;-74
2022/11/26 01:59:29;;;;;;;53.83;17.30;;;4.80;99.90;;;;;;5000782;28;20491;-75
2022/11/26 02:01:57;;;;;;;46.83;15.85;;;4.80;99.90;;;;;;5033441;28;20104;-75
2022/11/26 02:04:46;;;;;;;50.10;15.95;;;4.70;99.90;;;;;;5033571;28;20111;-74
2022/11/26 02:07:11;;;;;;;51.58;17.73;;;4.80;99.90;;;;;;5017188;28;20056;-73
2022/11/26 02:09:38;;;;;;;49.80;18.20;;;4.90;99.90;;;;;;5033423;28;20049;-72
2022/11/26 02:12:04;;;;;;;47.38;17.40;;;4.80;99.90;;;;;;5000790;28;20042;-75
2022/11/26 02:14:39;;;;;;;54.63;16.45;;;4.90;99.90;;;;;;5033398;28;20051;-73
2022/11/26 02:17:11;;;;;;;46.85;15.43;;;4.90;99.90;;;;;;5033428;28;20053;-74
2022/11/26 02:19:55;;;;;;;;;;;4.90;99.90;;;;;;5017131;28;20093;-72
2022/11/26 02:22:46;;;;;;;37.20;12.45;;;5.00;99.90;;;;;;5033121;28;19925;-74
2022/11/26 02:25:40;;;;;;;31.27;11.93;;;5.00;99.90;;;;;;5016994;28;20073;-74
2022/11/26 02:28:27;;;;;;;36.85;12.65;;;5.00;99.90;;;;;;5016838;28;20041;-71
2022/11/26 02:31:19;;;;;;;35.97;12.20;;;4.90;99.90;;;;;;5033025;28;20528;-74
2022/11/26 02:34:02;;;;;;;42.47;11.20;;;4.90;99.90;;;;;;5032362;28;20426;-74
2022/11/26 02:36:34;;;;;;;38.20;11.27;;;4.90;99.90;;;;;;5016588;28;20045;-73
2022/11/26 02:39:15;;;;;;;37.30;11.98;;;4.90;99.90;;;;;;5016646;28;20125;-72
2022/11/26 02:41:53;;;;;;;34.90;12.43;;;4.90;99.90;;;;;;5032838;28;20122;-73
2022/11/26 02:44:40;;;;;;;42.22;13.15;;;5.30;99.90;;;;;;5032756;28;20391;-74
2022/11/26 02:47:14;;;;;;;41.05;13.20;;;5.00;99.90;;;;;;5032970;28;20050;-70
2022/11/26 02:49:43;;;;;;;37.75;12.57;;;5.10;99.90;;;;;;5016082;28;20452;-74
2022/11/26 02:52:10;;;;;;;35.53;12.23;;;5.30;99.90;;;;;;5016413;28;20183;-74
2022/11/26 02:54:37;;;;;;;37.47;11.90;;;5.10;99.90;;;;;;5032579;28;20102;-72
2022/11/26 02:57:06;;;;;;;42.35;12.30;;;5.10;99.90;;;;;;5032740;28;20494;-76
2022/11/26 02:59:33;;;;;;;35.38;11.10;;;4.90;99.90;;;;;;5032536;28;20072;-74
2022/11/26 03:02:23;;;;;;;34.58;12.30;;;5.00;99.90;;;;;;5032583;28;20045;-74
2022/11/26 03:04:53;;;;;;;45.30;14.43;;;5.50;99.90;;;;;;5023962;28;20065;-76
2022/11/26 03:07:19;;;;;;;38.58;13.90;;;4.90;99.90;;;;;;5016094;28;20191;-76
2022/11/26 03:09:55;;;;;;;43.13;14.80;;;4.80;99.90;;;;;;5015830;28;20135;-76
2022/11/26 03:12:21;;;;;;;42.33;14.50;;;4.80;99.90;;;;;;5016096;28;20045;-75
2022/11/26 03:14:47;;;;;;;41.65;14.93;;;5.40;99.90;;;;;;5031582;28;20052;-74
2022/11/26 03:17:14;;;;;;;39.55;15.45;;;5.00;99.90;;;;;;5032419;28;20053;-74
2022/11/26 03:19:40;;;;;;;44.00;16.02;;;5.00;99.90;;;;;;5031872;28;20571;-71
2022/11/26 03:22:06;;;;;;;46.55;15.85;;;5.00;99.90;;;;;;5015716;28;20113;-71
2022/11/26 03:24:31;;;;;;;39.13;13.23;;;5.10;99.90;;;;;;5031985;28;20114;-75
2022/11/26 03:26:57;;;;;;;48.45;15.15;;;5.00;99.90;;;;;;5032087;28;20042;-74
2022/11/26 03:29:23;;;;;;;49.28;15.43;;;5.20;99.90;;;;;;5015812;28;20049;-75
2022/11/26 03:31:49;;;;;;;45.80;15.50;;;5.40;99.90;;;;;;5015163;28;20058;-73
2022/11/26 03:34:15;;;;;;;39.42;15.20;;;5.10;99.90;;;;;;5032140;28;20045;-75
2022/11/26 03:36:40;;;;;;;38.65;13.55;;;5.00;99.90;;;;;;5015475;28;20128;-72
2022/11/26 03:39:06;;;;;;;48.47;15.60;;;5.10;99.90;;;;;;5032180;28;20045;-70
2022/11/26 03:41:32;;;;;;;45.35;16.13;;;5.00;99.90;;;;;;5015075;28;20046;-74
2022/11/26 03:43:57;;;;;;;40.40;14.30;;;5.30;99.90;;;;;;4999381;28;20041;-73
2022/11/26 03:46:23;;;;;;;41.38;14.13;;;4.90;99.90;;;;;;5031796;28;20486;-74
2022/11/26 03:48:49;;;;;;;36.78;12.20;;;4.90;99.90;;;;;;5015266;28;20053;-74
2022/11/26 03:51:15;;;;;;;41.60;15.23;;;4.90;99.90;;;;;;5031708;28;20045;-75
2022/11/26 03:53:40;;;;;;;42.60;16.48;;;5.10;99.90;;;;;;5031745;28;20136;-73
2022/11/26 03:56:06;;;;;;;49.60;15.95;;;5.10;99.90;;;;;;5031889;28;20045;-72
2022/11/26 03:58:33;;;;;;;38.95;15.90;;;4.90;99.90;;;;;;5015182;28;20045;-74
2022/11/26 04:00:58;;;;;;;45.28;16.77;;;4.80;99.90;;;;;;5015627;28;20099;-77
2022/11/26 04:03:24;;;;;;;44.63;16.38;;;4.90;99.90;;;;;;5031710;28;20421;-78
2022/11/26 04:05:50;;;;;;;42.08;16.00;;;4.90;99.90;;;;;;5031614;28;20047;-74
2022/11/26 04:08:16;;;;;;;50.55;16.40;;;4.80;99.90;;;;;;5031701;28;20065;-75
2022/11/26 04:10:41;;;;;;;45.50;16.13;;;4.70;99.90;;;;;;5031392;28;20453;-74
2022/11/26 04:13:07;;;;;;;46.80;16.75;;;4.60;99.90;;;;;;5031584;28;20100;-78
2022/11/26 04:15:33;;;;;;;51.95;17.30;;;4.60;99.90;;;;;;5031662;28;20080;-75
2022/11/26 04:17:59;;;;;;;49.28;17.35;;;4.80;99.90;;;;;;5015152;28;20132;-71
2022/11/26 04:20:25;;;;;;;49.92;17.30;;;5.00;99.90;;;;;;5031702;28;20469;-78
2022/11/26 04:22:50;;;;;;;51.88;16.50;;;4.60;99.90;;;;;;5031250;28;20046;-73
2022/11/26 04:25:16;;;;;;;43.42;16.48;;;4.60;99.90;;;;;;5033025;28;20052;-70
2022/11/26 04:27:42;;;;;;;47.15;17.60;;;4.50;99.90;;;;;;5019064;28;20502;-74
2022/11/26 04:30:08;;;;;;;43.83;17.25;;;4.50;99.90;;;;;;5019025;28;20450;-73
2022/11/26 04:32:35;;;;;;;51.08;17.58;;;4.50;99.90;;;;;;5034962;28;20057;-79
2022/11/26 04:35:01;;;;;;;49.15;18.15;;;4.50;99.90;;;;;;5018751;28;20048;-75
2022/11/26 04:37:27;;;;;;;55.63;17.80;;;4.50;99.90;;;;;;5018883;28;20474;-71
2022/11/26 04:39:52;;;;;;;55.17;17.63;;;4.40;99.90;;;;;;5018440;28;20048;-73
2022/11/26 04:42:18;;;;;;;51.50;17.70;;;5.10;99.90;;;;;;5035293;28;20127;-72
2022/11/26 04:44:44;;;;;;;55.95;18.60;;;4.30;99.90;;;;;;5002321;28;20429;-74
2022/11/26 04:47:09;;;;;;;54.15;16.80;;;4.40;99.90;;;;;;5035233;28;20099;-70
2022/11/26 04:49:35;;;;;;;51.30;17.98;;;4.40;99.90;;;;;;5035216;28;20073;-71
2022/11/26 04:52:01;;;;;;;53.35;18.30;;;4.90;99.90;;;;;;5034918;28;20042;-75
2022/11/26 04:54:26;;;;;;;44.97;16.63;;;4.40;99.90;;;;;;5018684;28;20452;-73
2022/11/26 04:56:52;;;;;;;54.13;19.05;;;4.60;99.90;;;;;;5034925;28;20053;-73
2022/11/26 04:59:18;;;;;;;48.30;18.17;;;4.80;99.90;;;;;;5034958;28;20055;-77
2022/11/26 05:01:43;;;;;;;47.60;17.38;;;4.50;99.90;;;;;;5002076;28;20049;-74
2022/11/26 05:04:09;;;;;;;50.47;18.25;;;4.50;99.90;;;;;;5034619;28;20128;-72
2022/11/26 05:06:35;;;;;;;48.00;16.83;;;4.50;99.90;;;;;;5018406;28;20044;-78
2022/11/26 05:09:01;;;;;;;55.10;19.20;;;4.50;99.90;;;;;;5018263;28;20056;-74
2022/11/26 05:11:26;;;;;;;56.33;18.27;;;4.50;99.90;;;;;;5034789;28;20052;-73
2022/11/26 05:13:52;;;;;;;54.17;18.17;;;4.50;99.90;;;;;;5018163;28;20065;-74
2022/11/26 05:16:18;;;;;;;63.20;19.65;;;4.50;99.90;;;;;;5034644;28;20049;-75
2022/11/26 05:18:43;;;;;;;55.00;19.73;;;5.00;99.90;;;;;;5034615;28;20049;-74
2022/11/26 05:21:09;;;;;;;52.30;18.98;;;4.70;99.90;;;;;;5017937;28;20215;-74
2022/11/26 05:23:35;;;;;;;50.83;19.45;;;4.60;99.90;;;;;;5034277;28;20049;-74
2022/11/26 05:26:00;;;;;;;61.78;20.35;;;4.50;99.90;;;;;;5017888;28;20042;-72
2022/11/26 05:28:26;;;;;;;56.50;19.30;;;4.60;99.90;;;;;;5018122;28;20048;-70
2022/11/26 05:31:02;;;;;;;57.00;19.35;;;4.90;99.90;;;;;;5034065;28;20050;-74
2022/11/26 05:33:28;;;;;;;59.95;19.88;;;5.00;99.90;;;;;;5017888;28;20402;-74
2022/11/26 05:35:54;;;;;;;58.42;20.25;;;4.60;99.90;;;;;;5017638;28;20080;-74
2022/11/26 05:38:19;;;;;;;58.70;20.35;;;4.60;99.90;;;;;;5017240;28;20107;-70
2022/11/26 05:40:45;;;;;;;57.65;19.00;;;4.90;99.90;;;;;;5017827;28;20453;-75
2022/11/26 05:43:11;;;;;;;58.63;19.00;;;4.70;99.90;;;;;;5033809;28;20045;-75
2022/11/26 05:45:37;;;;;;;64.78;20.92;;;4.60;99.90;;;;;;5001211;28;20088;-74
2022/11/26 05:48:03;;;;;;;60.03;19.92;;;4.60;99.90;;;;;;5017495;28;20045;-74
2022/11/26 05:50:30;;;;;;;57.40;19.08;;;4.60;99.90;;;;;;5034151;28;20072;-71
2022/11/26 05:52:56;;;;;;;62.47;20.10;;;4.50;99.90;;;;;;5000849;28;20057;-71
2022/11/26 05:55:21;;;;;;;56.55;20.65;;;4.60;99.90;;;;;;5033931;28;20046;-73
2022/11/26 05:57:47;;;;;;;59.42;19.42;;;4.70;99.90;;;;;;5017462;28;20103;-71
2022/11/26 06:00:13;;;;;;;68.45;21.10;;;5.00;99.90;;;;;;5001020;28;20038;-73
2022/11/26 06:02:39;;;;;;;70.18;20.35;;;4.50;99.90;;;;;;5000923;28;20114;-72
2022/11/26 06:05:05;;;;;;;66.82;19.25;;;4.50;99.90;;;;;;5033702;28;20494;-78
2022/11/26 06:07:31;;;;;;;57.95;19.45;;;4.40;99.90;;;;;;5017328;28;20046;-73
2022/11/26 06:09:57;;;;;;;72.78;21.05;;;4.40;99.90;;;;;;5033517;28;20111;-73
2022/11/26 06:12:23;;;;;;;64.40;19.90;;;4.30;99.90;;;;;;5033669;28;20136;-73
2022/11/26 06:14:49;;;;;;;51.08;18.27;;;4.30;99.90;;;;;;5033639;28;20045;-74
2022/11/26 06:17:14;;;;;;;68.72;19.35;;;4.80;99.90;;;;;;5033413;28;20049;-78
2022/11/26 06:19:40;;;;;;;58.83;19.95;;;4.60;99.90;;;;;;5033672;28;20474;-74
2022/11/26 06:22:06;;;;;;;62.75;20.42;;;4.90;99.90;;;;;;5033291;28;20084;-75
2022/11/26 06:24:32;;;;;;;57.03;21.15;;;4.30;99.90;;;;;;5033482;28;20053;-75
2022/11/26 06:26:57;;;;;;;65.63;21.23;;;4.70;99.90;;;;;;5000442;28;20107;-73
2022/11/26 06:29:23;;;;;;;61.17;20.30;;;4.30;99.90;;;;;;5016917;28;20264;-73
2022/11/26 06:31:49;;;;;;;73.18;21.75;;;4.30;99.90;;;;;;5032698;28;20085;-73
2022/11/26 06:34:15;;;;;;;61.28;23.63;;;4.60;99.90;;;;;;5016595;28;20931;-76
2022/11/26 06:36:41;;;;;;;82.13;24.17;;;4.40;99.90;;;;;;5000518;28;20083;-73
2022/11/26 06:39:08;;;;;;;106.07;26.63;;;5.50;99.90;;;;;;5032979;28;20474;-72
2022/11/26 06:41:34;;;;;;;128.93;27.90;;;4.50;99.90;;;;;;5016690;28;20053;-74
2022/11/26 06:44:00;;;;;;;126.70;28.85;;;4.70;99.90;;;;;;5016126;28;20405;-74
2022/11/26 06:46:26;;;;;;;181.52;32.17;;;4.60;99.90;;;;;;5000275;28;20107;-75
2022/11/26 06:48:52;;;;;;;220.77;32.10;;;4.60;99.90;;;;;;5032017;28;20111;-74
2022/11/26 06:51:20;;;;;;;206.32;30.08;;;4.60;99.90;;;;;;5016178;28;20140;-72
2022/11/26 06:53:47;;;;;;;219.73;32.10;;;4.60;99.90;;;;;;5015588;28;20493;-72
2022/11/26 06:56:15;;;;;;;306.30;38.80;;;5.10;99.90;;;;;;4649425;28;10000487;-74
2022/11/26 06:58:41;;;;;;;341.85;41.42;;;4.70;99.90;;;;;;5026836;28;20054;-74
2022/11/26 07:01:13;;;;;;;368.38;40.33;;;5.30;99.90;;;;;;5027065;28;20049;-72
2022/11/26 07:03:39;;;;;;;237.18;32.33;;;4.70;99.90;;;;;;5026888;28;20050;-75
2022/11/26 07:06:18;;;;;;;330.13;37.17;;;4.80;99.90;;;;;;5026483;28;20144;-75
2022/11/26 07:08:44;;;;;;;380.73;42.05;;;4.70;99.90;;;;;;5010674;28;20057;-73
2022/11/26 07:11:10;;;;;;;324.80;38.35;;;4.70;99.90;;;;;;5010167;28;20045;-75
2022/11/26 07:13:36;;;;;;;298.95;35.92;;;4.70;99.90;;;;;;5026919;28;20060;-74
2022/11/26 07:16:03;;;;;;;252.88;33.78;;;5.00;99.90;;;;;;4993942;28;20050;-77
2022/11/26 07:18:28;;;;;;;302.02;37.05;;;4.80;99.90;;;;;;5009675;28;20045;-75
2022/11/26 07:20:54;;;;;;;346.05;39.45;;;4.80;99.90;;;;;;4993695;28;20056;-74
2022/11/26 07:23:20;;;;;;;263.35;34.33;;;4.80;99.90;;;;;;4993607;28;20092;-75
2022/11/26 07:25:46;;;;;;;212.95;30.67;;;4.80;99.90;;;;;;5026465;28;20053;-77
2022/11/26 07:28:11;;;;;;;221.95;31.95;;;4.70;99.90;;;;;;5026837;28;20107;-74
2022/11/26 07:30:37;;;;;;;278.00;34.05;;;4.80;99.90;;;;;;5009650;28;20046;-77
2022/11/26 07:33:03;;;;;;;225.18;32.65;;;5.00;99.90;;;;;;5010402;28;20164;-74
2022/11/26 07:35:29;;;;;;;234.38;33.05;;;4.80;99.90;;;;;;5010142;28;20042;-74
2022/11/26 07:37:55;;;;;;;172.65;30.38;;;4.90;99.90;;;;;;5010361;28;20081;-80
2022/11/26 07:40:21;;;;;;;331.40;37.65;;;4.90;99.90;;;;;;5026437;28;20128;-75
2022/11/26 07:42:47;;;;;;;155.65;26.88;;;5.00;99.90;;;;;;5029152;28;20494;-74
2022/11/26 07:45:12;;;;;;;120.60;25.55;;;4.90;99.90;;;;;;5029699;28;20052;-76
2022/11/26 07:47:38;;;;;;;187.73;29.20;;;5.00;99.90;;;;;;4997012;28;20053;-74
2022/11/26 07:50:04;;;;;;;153.63;28.15;;;5.00;99.90;;;;;;4997066;28;20045;-76
2022/11/26 07:52:30;;;;;;;315.85;35.97;;;5.00;99.90;;;;;;4996685;28;20479;-75
2022/11/26 07:54:56;;;;;;;205.70;31.38;;;5.10;99.90;;;;;;5012664;28;20077;-74
2022/11/26 07:57:22;;;;;;;246.25;32.67;;;5.20;99.90;;;;;;5029588;28;20048;-76
2022/11/26 07:59:47;;;;;;;290.15;34.15;;;5.30;99.90;;;;;;5029336;28;20043;-75
2022/11/26 08:02:14;;;;;;;274.77;33.67;;;6.20;99.90;;;;;;5012862;28;20050;-77
2022/11/26 08:04:40;;;;;;;167.57;26.88;;;5.30;99.90;;;;;;4996801;28;20057;-76
2022/11/26 08:07:06;;;;;;;261.83;32.17;;;5.60;99.90;;;;;;5027449;28;20045;-75
2022/11/26 08:09:31;;;;;;;261.83;33.25;;;5.70;99.90;;;;;;5017418;28;20037;-76
2022/11/26 08:11:57;;;;;;;128.05;23.40;;;5.40;99.90;;;;;;5007773;28;20053;-72
2022/11/26 08:14:23;;;;;;;109.90;20.40;;;5.40;99.90;;;;;;5029299;28;20049;-73
2022/11/26 08:16:48;;;;;;;158.40;27.48;;;5.40;99.90;;;;;;5029429;28;20110;-75
2022/11/26 08:19:14;;;;;;;221.35;29.17;;;5.50;99.90;;;;;;5012515;28;20053;-76
2022/11/26 08:21:40;;;;;;;213.00;30.55;;;5.50;99.90;;;;;;5029409;28;20057;-75
2022/11/26 08:24:16;;;;;;;160.00;26.10;;;5.60;99.90;;;;;;5012796;28;20045;-71
2022/11/26 08:26:44;;;;;;;138.15;24.75;;;5.60;99.90;;;;;;5029645;28;20084;-75
2022/11/26 08:29:10;;;;;;;227.93;31.60;;;5.60;99.90;;;;;;5015463;28;20099;-74
2022/11/26 08:31:35;;;;;;;144.60;27.02;;;5.80;99.90;;;;;;5031053;28;20446;-75
2022/11/26 08:34:02;;;;;;;188.73;31.65;;;5.90;99.90;;;;;;5015101;28;20050;-75
2022/11/26 08:36:30;;;;;;;241.15;34.08;;;5.80;99.90;;;;;;5014818;28;20048;-74
2022/11/26 08:38:56;;;;;;;188.38;30.90;;;5.90;99.90;;;;;;4998706;28;20057;-76
2022/11/26 08:41:22;;;;;;;202.05;32.15;;;5.90;99.90;;;;;;4998479;28;20508;-74
2022/11/26 08:43:49;;;;;;;164.77;30.02;;;6.00;99.90;;;;;;5014746;28;20393;-76
2022/11/26 08:46:14;;;;;;;193.80;31.40;;;6.10;99.90;;;;;;5031489;28;20081;-76
2022/11/26 08:48:40;;;;;;;189.32;32.00;;;6.10;99.90;;;;;;5014926;28;20084;-71
2022/11/26 08:51:09;;;;;;;143.65;30.63;;;6.10;99.90;;;;;;5031402;28;20056;-74
2022/11/26 08:53:36;;;;;;;156.65;29.73;;;6.10;99.90;;;;;;5014709;28;20045;-77
2022/11/26 08:56:04;;;;;;;155.38;30.83;;;6.20;99.90;;;;;;5031324;28;20394;-73
2022/11/26 08:58:33;;;;;;;163.30;29.42;;;6.20;99.90;;;;;;5014607;28;20056;-74
2022/11/26 09:00:59;;;;;;;182.60;32.50;;;6.60;99.90;;;;;;5031127;28;20056;-79
2022/11/26 09:03:24;;;;;;;124.78;26.58;;;6.30;99.90;;;;;;5030604;28;20053;-78
2022/11/26 09:05:50;;;;;;;204.00;33.63;;;6.30;99.90;;;;;;5014857;28;20098;-74
2022/11/26 09:08:16;;;;;;;123.35;29.08;;;6.50;99.90;;;;;;5031221;28;20057;-76
2022/11/26 09:10:41;;;;;;;148.90;29.23;;;6.50;99.90;;;;;;5030965;28;20474;-75
2022/11/26 09:13:07;;;;;;;201.18;32.70;;;7.00;99.90;;;;;;5017349;28;20042;-73
2022/11/26 09:15:33;;;;;;;155.02;26.88;;;6.50;99.90;;;;;;5034627;28;20059;-74
2022/11/26 09:18:02;;;;;;;178.40;29.60;;;6.50;99.90;;;;;;5034663;28;20061;-75
2022/11/26 09:20:28;;;;;;;178.50;31.30;;;6.50;99.90;;;;;;5018385;28;20091;-73
2022/11/26 09:22:54;;;;;;;209.68;34.30;;;6.80;99.90;;;;;;5034464;28;20081;-75
2022/11/26 09:25:19;;;;;;;235.25;36.42;;;6.70;99.90;;;;;;5034517;28;20577;-76
2022/11/26 09:27:45;;;;;;;139.63;28.10;;;6.70;99.90;;;;;;5034507;28;20049;-75
2022/11/26 09:30:12;;;;;;;191.32;34.17;;;6.80;99.90;;;;;;5034478;28;20457;-73
2022/11/26 09:32:38;;;;;;;157.70;30.60;;;6.80;99.90;;;;;;5033461;28;20073;-74
2022/11/26 09:35:04;;;;;;;113.95;27.90;;;6.90;99.90;;;;;;5034318;28;20058;-74
2022/11/26 09:37:30;;;;;;;114.13;29.17;;;6.90;99.90;;;;;;5017595;28;20116;-74
2022/11/26 09:40:02;;;;;;;140.80;31.42;;;7.00;99.90;;;;;;5034257;28;20041;-73
2022/11/26 09:43:19;;;;;;;97.78;28.55;;;7.00;99.90;;;;;;5034006;28;20489;-78
2022/11/26 09:45:49;;;;;;;100.93;28.50;;;7.10;99.90;;;;;;5012065;28;20096;-74
2022/11/26 09:48:23;;;;;;;114.13;29.73;;;7.20;99.90;;;;;;5034106;28;20041;-72
2022/11/26 09:50:54;;;;;;;90.80;26.52;;;7.20;99.90;;;;;;5034079;28;20099;-76
2022/11/26 09:53:28;;;;;;;90.43;27.10;;;7.20;99.90;;;;;;5034099;28;20398;-74
2022/11/26 09:55:55;;;;;;;90.75;26.45;;;7.30;99.90;;;;;;5017529;28;20061;-75
2022/11/26 09:58:39;;;;;;;80.45;25.25;;;7.50;99.90;;;;;;5017482;28;20053;-75
2022/11/26 10:01:06;;;;;;;92.60;25.95;;;7.30;99.90;;;;;;5017450;28;20087;-79
2022/11/26 10:03:41;;;;;;;73.38;23.52;;;7.40;99.90;;;;;;5016943;28;20037;-74
2022/11/26 10:06:31;;;;;;;88.15;26.20;;;7.30;99.90;;;;;;5017289;28;20088;-72
2022/11/26 10:09:16;;;;;;;73.47;24.67;;;7.40;99.90;;;;;;5033969;28;20045;-71
2022/11/26 10:11:53;;;;;;;78.10;24.55;;;7.40;99.90;;;;;;5030415;28;20343;-75
2022/11/26 10:14:31;;;;;;;83.15;25.08;;;7.50;99.90;;;;;;5015117;28;20045;-74
2022/11/26 10:17:13;;;;;;;69.65;23.35;;;7.50;99.90;;;;;;5015053;28;20049;-72
2022/11/26 10:20:03;;;;;;;61.53;21.67;;;7.50;99.90;;;;;;5032181;28;20064;-75
2022/11/26 10:22:55;;;;;;;91.35;24.13;;;7.50;99.90;;;;;;5014156;28;20049;-76
2022/11/26 10:25:28;;;;;;;61.42;22.60;;;7.80;99.90;;;;;;5004836;28;20058;-76
2022/11/26 10:27:55;;;;;;;44.28;16.95;;;7.60;99.90;;;;;;5031279;28;20573;-74
2022/11/26 10:30:26;;;;;;;70.40;24.23;;;7.50;99.90;;;;;;5014865;28;20041;-75
2022/11/26 10:32:54;;;;;;;73.20;24.60;;;7.60;99.90;;;;;;5014396;28;20057;-75
2022/11/26 10:35:26;;;;;;;85.30;26.27;;;7.60;99.90;;;;;;5014248;28;20064;-76
2022/11/26 10:37:54;;;;;;;65.75;22.80;;;7.60;99.90;;;;;;5014205;28;20049;-76
2022/11/26 10:40:26;;;;;;;78.45;26.63;;;7.60;99.90;;;;;;4683520;28;9999797;-73
2022/11/26 10:43:07;;;;;;;74.47;26.98;;;7.70;99.90;;;;;;5030657;28;20131;-74
2022/11/26 10:45:46;;;;;;;79.07;26.13;;;7.80;99.90;;;;;;5030622;28;20505;-71
2022/11/26 10:48:32;;;;;;;69.47;26.50;;;7.80;99.90;;;;;;5031022;28;20041;-75
2022/11/26 10:50:58;;;;;;;76.78;26.08;;;7.90;99.90;;;;;;4998085;28;20516;-75
2022/11/26 10:53:25;;;;;;;79.70;28.48;;;7.90;99.90;;;;;;5014104;28;20038;-71
2022/11/26 10:56:00;;;;;;;82.15;28.05;;;8.00;99.90;;;;;;4994635;28;20060;-75
2022/11/26 10:58:30;;;;;;;79.72;27.55;;;8.00;99.90;;;;;;4994053;28;20072;-77
2022/11/26 11:01:01;;;;;;;80.63;27.05;;;8.00;99.90;;;;;;5010767;28;20070;-80
2022/11/26 11:03:31;;;;;;;67.35;24.35;;;8.00;99.90;;;;;;4994482;28;20050;-73
2022/11/26 11:06:27;;;;;;;83.53;28.30;;;8.10;99.90;;;;;;5013084;28;20085;-75
2022/11/26 11:08:53;;;;;;;82.18;28.25;;;8.10;99.90;;;;;;5023336;28;20054;-76
2022/11/26 11:11:30;;;;;;;87.40;28.02;;;8.20;99.90;;;;;;5012020;28;20131;-75
2022/11/26 11:13:56;;;;;;;88.28;28.50;;;8.30;99.90;;;;;;5019270;28;20137;-80
2022/11/26 11:16:36;;;;;;;78.95;29.02;;;8.30;99.90;;;;;;4994309;28;20057;-74
2022/11/26 11:19:04;;;;;;;88.90;29.88;;;8.30;99.90;;;;;;4994242;28;20137;-76
2022/11/26 11:21:36;;;;;;;85.70;29.10;;;8.30;99.90;;;;;;5002570;28;20383;-76
2022/11/26 11:24:14;;;;;;;78.25;29.95;;;8.40;99.90;;;;;;4993426;28;20084;-77
2022/11/26 11:26:43;;;;;;;88.50;29.58;;;8.40;99.90;;;;;;5010377;28;20529;-75
2022/11/26 11:29:33;;;;;;;95.82;32.22;;;8.50;99.90;;;;;;5010353;28;20562;-76
2022/11/26 11:32:01;;;;;;;101.13;32.42;;;8.50;99.90;;;;;;4993685;28;20370;-75
2022/11/26 11:34:30;;;;;;;86.35;31.45;;;8.60;99.90;;;;;;5020668;28;20081;-72
2022/11/26 11:37:03;;;;;;;90.10;33.17;;;8.60;99.90;;;;;;5003661;28;20045;-77
2022/11/26 11:39:31;;;;;;;92.15;29.85;;;8.60;99.90;;;;;;5008041;28;20045;-79
2022/11/26 11:41:59;;;;;;;80.32;28.63;;;8.70;99.90;;;;;;4998738;28;20057;-76
2022/11/26 11:44:46;;;;;;;86.53;29.33;;;8.70;99.90;;;;;;5024245;28;20045;-83
2022/11/26 11:47:30;;;;;;;83.22;31.00;;;8.70;99.90;;;;;;5028622;28;20398;-77
2022/11/26 11:50:14;;;;;;;84.70;29.45;;;8.80;99.90;;;;;;5012658;28;20060;-79
2022/11/26 11:53:15;;;;;;;71.45;28.40;;;8.80;99.90;;;;;;5029022;28;20046;-74
2022/11/26 11:55:47;;;;;;;75.50;29.30;;;8.90;99.90;;;;;;4998490;28;20703;-75
2022/11/26 11:58:21;;;;;;;85.35;30.13;;;8.90;99.90;;;;;;5027802;28;20049;-75
2022/11/26 12:00:59;;;;;;;72.72;28.83;;;9.00;99.90;;;;;;5025323;28;20052;-74
2022/11/26 12:03:38;;;;;;;83.57;29.42;;;9.10;99.90;;;;;;5028292;28;20102;-78
2022/11/26 12:06:28;;;;;;;79.03;30.33;;;9.10;99.90;;;;;;5028478;28;20120;-71
2022/11/26 12:09:38;;;;;;;76.78;29.67;;;9.20;99.90;;;;;;5029114;28;20105;-76
2022/11/26 12:12:54;;;;;;;66.80;26.25;;;9.20;99.90;;;;;;5027076;28;20211;-76
2022/11/26 12:15:45;;;;;;;78.28;29.63;;;9.10;99.90;;;;;;4987751;28;20081;-75
2022/11/26 12:18:30;;;;;;;74.72;28.23;;;9.20;99.90;;;;;;4962169;28;20490;-74
2022/11/26 12:21:18;;;;;;;68.20;25.48;;;9.20;99.90;;;;;;5014488;28;20157;-78
2022/11/26 12:23:47;;;;;;;71.65;27.20;;;9.20;99.90;;;;;;5014637;28;20494;-76
2022/11/26 12:26:37;;;;;;;83.82;29.17;;;9.20;99.90;;;;;;5028485;28;20097;-74
2022/11/26 12:29:34;;;;;;;78.53;27.33;;;9.20;99.90;;;;;;5028530;28;20186;-74
2022/11/26 12:32:17;;;;;;;71.25;25.95;;;9.20;99.90;;;;;;5028414;28;20081;-76
2022/11/26 12:34:51;;;;;;;73.68;26.77;;;9.20;99.90;;;;;;5028663;28;20061;-75
2022/11/26 12:37:39;;;;;;;70.97;27.02;;;9.20;99.90;;;;;;5028498;28;20457;-72
2022/11/26 12:40:44;;;;;;;61.13;24.33;;;9.20;99.90;;;;;;5012321;28;20132;-79
2022/11/26 12:43:33;;;;;;;66.88;25.65;;;9.20;99.90;;;;;;5028692;28;20061;-77
2022/11/26 12:46:15;;;;;;;75.65;25.17;;;9.20;99.90;;;;;;5009395;28;20517;-76
2022/11/26 12:49:00;;;;;;;71.82;25.77;;;9.30;99.90;;;;;;5012283;28;20454;-75
2022/11/26 12:51:40;;;;;;;71.25;25.33;;;9.20;99.90;;;;;;5029912;28;20074;-76
2022/11/26 12:54:25;;;;;;;65.75;25.42;;;9.30;99.90;;;;;;5016459;28;20085;-79